createdAt,value
2019-06-19T00:01:05.051Z,20.70
2019-06-19T00:06:03.431Z,21.00
2019-06-19T00:08:28.917Z,20.60
2019-06-19T00:10:56.473Z,20.80
2019-06-19T00:13:25.071Z,20.40
2019-06-19T00:15:53.677Z,20.70
2019-06-19T00:18:22.458Z,20.70
2019-06-19T00:20:52.049Z,20.50
2019-06-19T00:23:18.194Z,20.60
2019-06-19T00:25:45.766Z,20.60
2019-06-19T00:28:17.512Z,20.50
2019-06-19T00:30:42.634Z,20.40
2019-06-19T00:33:11.654Z,20.40
2019-06-19T00:35:38.366Z,20.40
2019-06-19T00:38:05.940Z,20.40
2019-06-19T00:40:34.606Z,20.10
2019-06-19T00:43:02.062Z,20.20
2019-06-19T00:47:58.346Z,20.20
2019-06-19T00:52:55.394Z,20.20
2019-06-19T00:55:24.693Z,20.30
2019-06-19T00:57:53.284Z,20.10
2019-06-19T01:00:21.693Z,20.10
2019-06-19T01:02:51.120Z,20.00
2019-06-19T01:05:18.088Z,20.10
2019-06-19T01:10:21.011Z,20.30
2019-06-19T01:15:17.512Z,20.10
2019-06-19T01:17:45.078Z,20.10
2019-06-19T01:20:13.690Z,19.80
2019-06-19T01:22:42.653Z,19.80
2019-06-19T01:27:41.593Z,19.80
2019-06-19T01:30:14.704Z,19.70
2019-06-19T01:32:38.025Z,19.60
2019-06-19T01:35:05.499Z,19.70
2019-06-19T01:37:32.954Z,19.60
2019-06-19T01:40:01.926Z,19.70
2019-06-19T01:42:27.905Z,19.60
2019-06-19T01:44:55.379Z,19.50
2019-06-19T01:47:22.910Z,19.60
2019-06-19T01:49:51.833Z,19.70
2019-06-19T01:52:21.673Z,19.30
2019-06-19T01:54:46.643Z,19.30
2019-06-19T01:57:14.886Z,19.50
2019-06-19T01:59:43.606Z,19.70
2019-06-19T02:02:11.469Z,19.70
2019-06-19T02:04:38.723Z,19.50
2019-06-19T02:07:06.285Z,19.60
2019-06-19T02:09:33.764Z,19.60
2019-06-19T02:12:01.541Z,19.50
2019-06-19T02:14:31.576Z,19.40
2019-06-19T02:16:57.120Z,19.40
2019-06-19T02:21:53.460Z,19.30
2019-06-19T02:24:21.683Z,19.50
2019-06-19T02:26:50.864Z,19.50
2019-06-19T02:41:42.004Z,19.20
2019-06-19T02:44:09.578Z,19.20
2019-06-19T02:46:37.142Z,19.30
2019-06-19T02:49:04.614Z,19.20
2019-06-19T02:51:32.176Z,19.30
2019-06-19T02:53:59.641Z,19.30
2019-06-19T02:56:27.099Z,19.10
2019-06-19T02:58:54.557Z,19.30
2019-06-19T03:01:22.032Z,19.40
2019-06-19T03:03:49.601Z,19.30
2019-06-19T03:06:17.082Z,19.30
2019-06-19T03:08:45.340Z,19.20
2019-06-19T03:16:11.311Z,19.30
2019-06-19T03:33:33.765Z,19.60
2019-06-19T03:36:01.231Z,19.60
2019-06-19T03:38:29.922Z,19.20
2019-06-19T03:40:57.403Z,19.30
2019-06-19T03:45:54.422Z,19.40
2019-06-19T03:48:23.043Z,19.30
2019-06-19T03:50:50.654Z,19.30
2019-06-19T03:53:18.169Z,19.30
2019-06-19T03:55:49.448Z,19.20
2019-06-19T03:58:17.726Z,19.50
2019-06-19T04:00:45.182Z,19.50
2019-06-19T04:03:12.729Z,19.50
2019-06-19T04:05:40.200Z,19.50
2019-06-19T04:08:07.763Z,19.40
2019-06-19T04:30:27.495Z,19.80
2019-06-19T04:32:55.575Z,19.80
2019-06-19T04:35:23.145Z,19.80
2019-06-19T04:37:51.751Z,19.90
2019-06-19T04:40:19.251Z,19.90
2019-06-19T04:42:46.710Z,19.80
2019-06-19T04:45:14.205Z,19.60
2019-06-19T04:47:41.704Z,19.40
2019-06-19T04:50:09.931Z,19.40
2019-06-19T04:52:42.639Z,19.40
2019-06-19T04:55:05.552Z,19.50
2019-06-19T04:57:33.888Z,19.90
2019-06-19T05:00:01.483Z,19.90
2019-06-19T05:02:29.988Z,20.00
2019-06-19T05:04:57.486Z,19.90
2019-06-19T05:07:24.966Z,19.90
2019-06-19T05:09:53.648Z,20.80
2019-06-19T05:12:22.350Z,20.90
2019-06-19T05:14:51.378Z,20.60
2019-06-19T05:17:18.842Z,20.60
2019-06-19T05:19:46.371Z,20.30
2019-06-19T05:22:14.682Z,20.20
2019-06-19T05:24:42.914Z,20.30
2019-06-19T05:27:10.388Z,20.30
2019-06-19T05:29:37.967Z,20.40
2019-06-19T05:32:05.454Z,20.40
2019-06-19T05:34:33.699Z,20.50
2019-06-19T05:37:01.161Z,20.50
2019-06-19T05:39:28.636Z,20.80
2019-06-19T05:41:56.119Z,20.80
2019-06-19T05:44:24.353Z,20.90
2019-06-19T05:46:51.815Z,20.90
2019-06-19T05:49:19.276Z,20.90
2019-06-19T05:51:46.862Z,20.90
2019-06-19T05:54:14.333Z,20.80
2019-06-19T05:56:42.601Z,20.90
2019-06-19T05:59:10.067Z,20.80
2019-06-19T06:01:38.347Z,21.00
2019-06-19T06:04:06.235Z,21.00
2019-06-19T06:09:03.274Z,21.10
2019-06-19T06:11:30.758Z,21.20
2019-06-19T06:13:59.366Z,21.10
2019-06-19T06:16:27.656Z,21.10
2019-06-19T06:18:55.921Z,21.10
2019-06-19T06:21:29.029Z,21.10
2019-06-19T06:23:56.550Z,21.00
2019-06-19T06:26:24.023Z,21.00
2019-06-19T06:31:20.486Z,20.90
2019-06-19T06:33:47.954Z,20.90
2019-06-19T06:36:15.413Z,20.70
2019-06-19T06:38:43.795Z,20.40
2019-06-19T06:41:11.276Z,20.40
2019-06-19T06:43:39.547Z,20.20
2019-06-19T06:46:07.891Z,20.10
2019-06-19T06:48:35.474Z,20.10
2019-06-19T06:53:33.667Z,19.90
2019-06-19T06:56:01.128Z,19.90
2019-06-19T06:58:28.707Z,19.90
2019-06-19T07:00:57.822Z,19.70
2019-06-19T07:03:25.351Z,19.70
2019-06-19T07:05:53.512Z,19.70
2019-06-19T07:10:50.756Z,19.30
2019-06-19T07:13:19.104Z,19.20
2019-06-19T07:15:47.797Z,19.10
2019-06-19T07:18:15.295Z,19.10
2019-06-19T07:45:31.907Z,21.00
2019-06-19T07:48:00.149Z,19.30
2019-06-19T07:50:27.711Z,19.20
2019-06-19T07:52:55.155Z,19.20
2019-06-19T07:55:22.646Z,19.20
2019-06-19T07:57:50.112Z,19.20
2019-06-19T08:00:17.865Z,19.60
2019-06-19T08:02:45.431Z,19.60
2019-06-19T08:05:12.918Z,19.60
2019-06-19T08:07:40.390Z,19.00
2019-06-19T08:10:08.625Z,19.10
2019-06-19T08:12:36.133Z,19.10
2019-06-19T08:15:05.093Z,19.40
2019-06-19T08:17:32.571Z,19.30
2019-06-19T08:20:00.058Z,19.00
2019-06-19T08:22:27.547Z,19.00
2019-06-19T08:24:55.048Z,19.10
2019-06-19T08:27:23.664Z,19.20
2019-06-19T08:29:51.948Z,19.10
2019-06-19T08:32:20.181Z,18.90
2019-06-19T08:34:49.410Z,18.90
2019-06-19T08:37:15.134Z,18.80
2019-06-19T08:39:42.594Z,19.20
2019-06-19T08:42:10.966Z,19.20
2019-06-19T08:44:38.443Z,19.20
2019-06-19T08:47:07.464Z,19.00
2019-06-19T08:49:35.731Z,18.90
2019-06-19T08:52:04.257Z,19.30
2019-06-19T08:54:31.765Z,19.30
2019-06-19T08:56:59.237Z,18.80
2019-06-19T08:59:26.720Z,19.10
2019-06-19T09:01:54.278Z,18.90
2019-06-19T09:04:34.173Z,19.40
2019-06-19T09:06:50.774Z,19.80
2019-06-19T09:09:21.023Z,19.70
2019-06-19T09:11:48.506Z,20.00
2019-06-19T09:14:16.767Z,19.90
2019-06-19T09:16:44.242Z,19.90
2019-06-19T09:19:11.804Z,19.90
2019-06-19T09:21:39.365Z,19.50
2019-06-19T09:24:06.867Z,19.70
2019-06-19T09:26:35.330Z,20.10
2019-06-19T09:29:04.313Z,20.40
2019-06-19T09:31:31.819Z,20.40
2019-06-19T09:34:00.037Z,20.70
2019-06-19T09:36:27.502Z,20.70
2019-06-19T09:38:54.984Z,20.80
2019-06-19T09:41:22.465Z,20.80
2019-06-19T09:43:50.707Z,21.00
2019-06-19T09:46:18.239Z,20.90
2019-06-19T09:48:46.886Z,21.10
2019-06-19T09:51:15.114Z,21.20
2019-06-19T09:53:42.590Z,21.30
2019-06-19T09:56:10.083Z,21.40
2019-06-19T09:58:39.507Z,22.10
2019-06-19T10:01:08.178Z,22.00
2019-06-19T10:03:35.754Z,22.00
2019-06-19T10:06:04.326Z,21.80
2019-06-19T10:08:32.365Z,21.80
2019-06-19T10:10:59.842Z,21.70
2019-06-19T10:13:27.368Z,21.60
2019-06-19T10:16:01.971Z,21.60
2019-06-19T10:18:22.353Z,21.80
2019-06-19T10:20:49.887Z,21.80
2019-06-19T10:23:17.389Z,21.80
2019-06-19T10:25:44.964Z,21.80
2019-06-19T10:28:13.213Z,21.70
2019-06-19T10:30:40.811Z,21.70
2019-06-19T10:33:09.226Z,21.90
2019-06-19T10:35:37.434Z,21.80
2019-06-19T10:38:04.897Z,21.80
2019-06-19T10:40:32.370Z,21.90
2019-06-19T10:42:59.938Z,22.10
2019-06-19T10:45:27.506Z,22.00
2019-06-19T10:47:54.984Z,22.00
2019-06-19T10:50:23.612Z,22.10
2019-06-19T10:52:51.077Z,22.00
2019-06-19T10:55:19.702Z,22.10
2019-06-19T10:57:47.175Z,22.10
2019-06-19T11:00:15.877Z,22.30
2019-06-19T11:02:43.334Z,22.30
2019-06-19T11:05:12.347Z,22.20
2019-06-19T11:07:40.596Z,22.10
2019-06-19T11:10:08.176Z,22.10
2019-06-19T11:12:37.148Z,22.10
2019-06-19T11:15:04.627Z,22.10
2019-06-19T11:17:32.199Z,22.10
2019-06-19T11:19:59.695Z,22.20
2019-06-19T11:22:27.210Z,22.20
2019-06-19T11:24:55.803Z,22.50
2019-06-19T11:27:24.501Z,22.80
2019-06-19T11:29:53.183Z,23.00
2019-06-19T11:32:21.854Z,23.00
2019-06-19T11:34:49.412Z,23.00
2019-06-19T11:37:16.879Z,22.90
2019-06-19T11:39:44.349Z,23.00
2019-06-19T11:42:12.967Z,23.10
2019-06-19T11:44:41.254Z,23.10
2019-06-19T11:47:08.898Z,23.40
2019-06-19T11:49:36.394Z,23.30
2019-06-19T11:52:04.649Z,23.40
2019-06-19T11:54:32.132Z,23.40
2019-06-19T11:57:00.739Z,23.70
2019-06-19T11:59:28.211Z,23.60
2019-06-19T12:01:56.839Z,23.90
2019-06-19T12:04:24.625Z,23.90
2019-06-19T12:06:52.185Z,23.70
2019-06-19T12:09:19.754Z,23.40
2019-06-19T12:11:47.240Z,23.30
2019-06-19T12:14:18.959Z,23.10
2019-06-19T12:16:43.147Z,23.10
2019-06-19T12:19:10.618Z,22.90
2019-06-19T12:21:38.078Z,22.90
2019-06-19T12:24:05.567Z,22.70
2019-06-19T12:26:33.881Z,22.70
2019-06-19T12:29:01.399Z,22.70
2019-06-19T12:31:28.890Z,22.80
2019-06-19T12:33:57.099Z,23.20
2019-06-19T12:36:29.991Z,23.20
2019-06-19T12:38:52.087Z,23.20
2019-06-19T12:41:20.334Z,23.20
2019-06-19T12:43:47.884Z,23.20
2019-06-19T12:46:15.414Z,23.10
2019-06-19T12:48:42.898Z,22.90
2019-06-19T12:51:10.426Z,22.90
2019-06-19T12:53:38.641Z,22.80
2019-06-19T12:56:06.232Z,22.80
2019-06-19T12:58:33.796Z,22.90
2019-06-19T13:01:01.270Z,23.00
2019-06-19T13:03:28.825Z,22.90
2019-06-19T13:05:56.322Z,22.80
2019-06-19T13:08:24.674Z,22.60
2019-06-19T13:10:52.383Z,22.60
2019-06-19T13:13:19.699Z,22.50
2019-06-19T13:15:47.270Z,22.50
2019-06-19T13:18:14.811Z,22.40
2019-06-19T13:20:42.310Z,22.30
2019-06-19T13:23:09.843Z,22.40
2019-06-19T13:25:37.321Z,22.30
2019-06-19T13:28:04.801Z,22.40
2019-06-19T13:30:32.353Z,22.30
2019-06-19T13:32:59.825Z,22.30
2019-06-19T13:35:27.303Z,22.30
2019-06-19T13:37:55.577Z,22.20
2019-06-19T13:40:23.823Z,22.30
2019-06-19T13:42:51.291Z,22.30
2019-06-19T13:45:19.532Z,22.20
2019-06-19T13:47:47.017Z,22.20
2019-06-19T13:50:14.483Z,22.20
2019-06-19T13:52:41.942Z,22.20
2019-06-19T13:55:09.403Z,22.20
2019-06-19T13:57:46.521Z,22.20
2019-06-19T14:00:06.235Z,22.30
2019-06-19T14:02:34.618Z,22.90
2019-06-19T14:05:02.775Z,22.90
2019-06-19T14:07:30.014Z,23.10
2019-06-19T14:09:59.109Z,23.20
2019-06-19T14:12:26.573Z,23.20
2019-06-19T14:14:54.139Z,23.30
2019-06-19T14:17:21.613Z,23.20
2019-06-19T14:19:49.170Z,23.20
2019-06-19T14:22:17.092Z,23.20
2019-06-19T14:24:44.715Z,23.20
2019-06-19T14:27:12.195Z,23.40
2019-06-19T14:29:40.455Z,23.20
2019-06-19T14:32:07.924Z,23.20
2019-06-19T14:34:35.393Z,23.30
2019-06-19T14:37:04.562Z,23.30
2019-06-19T14:39:32.046Z,23.30
2019-06-19T14:42:01.205Z,23.60
2019-06-19T14:44:29.827Z,24.20
2019-06-19T14:46:57.313Z,24.20
2019-06-19T14:49:25.989Z,24.30
2019-06-19T14:51:53.607Z,24.30
2019-06-19T14:56:49.907Z,23.90
2019-06-19T14:59:17.476Z,23.80
2019-06-19T15:01:45.034Z,23.80
2019-06-19T15:04:12.501Z,23.70
2019-06-19T15:06:40.892Z,23.90
2019-06-19T15:09:08.362Z,23.90
2019-06-19T15:11:36.609Z,24.20
2019-06-19T15:14:04.200Z,24.20
2019-06-19T15:16:31.703Z,24.10
2019-06-19T15:18:59.209Z,24.10
2019-06-19T15:21:26.707Z,24.10
2019-06-19T15:23:58.544Z,23.50
2019-06-19T15:26:26.045Z,23.50
2019-06-19T15:28:53.560Z,23.80
2019-06-19T15:31:21.123Z,24.00
2019-06-19T15:33:48.812Z,23.80
2019-06-19T15:36:17.079Z,23.70
2019-06-19T15:38:44.730Z,23.70
2019-06-19T15:41:12.204Z,23.90
2019-06-19T15:43:39.766Z,23.80
2019-06-19T15:46:07.335Z,23.40
2019-06-19T15:48:35.627Z,23.60
2019-06-19T15:51:03.765Z,23.50
2019-06-19T15:53:31.391Z,23.50
2019-06-19T15:55:59.770Z,23.50
2019-06-19T15:58:27.989Z,23.90
2019-06-19T16:00:55.466Z,23.80
2019-06-19T16:03:24.052Z,24.50
2019-06-19T16:05:52.398Z,24.50
2019-06-19T16:08:28.785Z,24.70
2019-06-19T16:10:49.675Z,24.80
2019-06-19T16:15:47.322Z,24.70
2019-06-19T16:18:14.927Z,24.60
2019-06-19T16:20:42.425Z,24.80
2019-06-19T16:23:09.900Z,24.70
2019-06-19T16:25:38.503Z,25.20
2019-06-19T16:28:04.845Z,25.10
2019-06-19T16:30:33.493Z,25.30
2019-06-19T16:33:00.967Z,25.30
2019-06-19T16:35:29.653Z,25.30
2019-06-19T16:37:57.248Z,25.30
2019-06-19T16:40:24.734Z,25.30
2019-06-19T16:42:52.988Z,25.10
2019-06-19T16:45:20.533Z,25.00
2019-06-19T16:47:48.202Z,25.10
2019-06-19T16:50:15.667Z,24.90
2019-06-19T16:52:43.126Z,24.60
2019-06-19T16:55:12.881Z,24.40
2019-06-19T16:57:40.413Z,24.30
2019-06-19T17:00:07.874Z,24.30
2019-06-19T17:02:35.435Z,24.20
2019-06-19T17:05:04.751Z,24.00
2019-06-19T17:07:32.307Z,24.00
2019-06-19T17:09:59.880Z,24.00
2019-06-19T17:12:27.355Z,24.10
2019-06-19T17:14:55.983Z,23.80
2019-06-19T17:17:23.464Z,23.80
2019-06-19T17:19:52.089Z,23.70
2019-06-19T17:22:19.579Z,23.70
2019-06-19T17:27:15.870Z,23.60
2019-06-19T17:29:43.370Z,23.70
2019-06-19T17:32:10.839Z,23.70
2019-06-19T17:34:39.105Z,23.60
2019-06-19T17:37:06.869Z,23.60
2019-06-19T17:39:34.438Z,23.60
2019-06-19T17:42:04.421Z,23.40
2019-06-19T17:44:33.047Z,23.20
2019-06-19T17:47:00.507Z,23.20
2019-06-19T17:49:29.140Z,22.10
2019-06-19T17:51:57.491Z,21.50
2019-06-19T17:54:26.085Z,21.10
2019-06-19T17:56:54.798Z,20.90
2019-06-19T17:59:22.319Z,20.90
2019-06-19T18:01:51.011Z,20.80
2019-06-19T18:04:19.734Z,20.60
2019-06-19T18:06:48.348Z,20.70
2019-06-19T18:09:15.819Z,20.70
2019-06-19T18:11:43.311Z,20.80
2019-06-19T18:14:10.867Z,20.90
2019-06-19T18:16:38.329Z,20.90
2019-06-19T18:19:05.816Z,20.90
2019-06-19T18:21:33.402Z,20.80
2019-06-19T18:24:01.664Z,20.80
2019-06-19T18:26:29.169Z,20.70
2019-06-19T18:28:56.659Z,20.70
2019-06-19T18:31:24.160Z,20.70
2019-06-19T18:33:53.552Z,20.80
2019-06-19T18:36:21.031Z,20.80
2019-06-19T18:38:49.297Z,20.80
2019-06-19T18:41:16.788Z,20.80
2019-06-19T18:43:45.021Z,20.80
2019-06-19T18:46:12.512Z,20.80
2019-06-19T18:48:39.974Z,20.90
2019-06-19T18:51:07.448Z,20.90
2019-06-19T18:53:35.683Z,20.80
2019-06-19T18:56:04.701Z,20.70
2019-06-19T18:58:32.178Z,20.70
2019-06-19T19:01:00.438Z,20.60
2019-06-19T19:03:28.018Z,20.60
2019-06-19T19:05:55.595Z,20.60
2019-06-19T19:08:23.841Z,20.60
2019-06-19T19:10:51.423Z,20.60
2019-06-19T19:13:18.973Z,20.50
2019-06-19T19:15:46.501Z,20.50
2019-06-19T19:18:15.125Z,20.40
2019-06-19T19:20:42.692Z,20.40
2019-06-19T19:23:11.298Z,20.60
2019-06-19T19:25:38.768Z,20.60
2019-06-19T19:28:07.024Z,20.50
2019-06-19T19:30:34.511Z,20.40
2019-06-19T19:33:02.775Z,20.40
2019-06-19T19:35:30.236Z,20.40
2019-06-19T19:37:57.690Z,20.50
2019-06-19T19:40:30.049Z,20.40
2019-06-19T19:42:54.918Z,20.30
2019-06-19T19:45:22.434Z,20.30
2019-06-19T19:47:50.000Z,20.20
2019-06-19T19:50:17.458Z,20.30
2019-06-19T19:52:44.926Z,20.30
2019-06-19T19:55:13.529Z,20.30
2019-06-19T19:57:42.839Z,20.30
2019-06-19T20:00:10.400Z,20.30
2019-06-19T20:02:38.631Z,20.20
2019-06-19T20:05:06.089Z,20.20
2019-06-19T20:07:33.596Z,20.20
2019-06-19T20:10:02.250Z,20.10
2019-06-19T20:12:29.709Z,20.10
2019-06-19T20:14:57.223Z,20.00
2019-06-19T20:17:25.497Z,20.10
2019-06-19T20:19:54.104Z,20.10
2019-06-19T20:22:22.393Z,20.20
2019-06-19T20:27:19.603Z,20.00
2019-06-19T20:29:47.067Z,19.90
2019-06-19T20:32:14.548Z,20.00
2019-06-19T20:34:42.015Z,20.00
2019-06-19T20:37:09.486Z,20.10
2019-06-19T20:39:37.718Z,19.90
2019-06-19T20:42:05.183Z,19.90
2019-06-19T20:44:32.679Z,19.90
2019-06-19T20:47:00.165Z,19.90
2019-06-19T20:49:27.626Z,20.00
2019-06-19T20:51:56.712Z,19.70
2019-06-19T20:54:24.160Z,19.70
2019-06-19T20:56:51.831Z,19.80
2019-06-19T20:59:34.369Z,19.70
2019-06-19T21:01:46.838Z,19.70
2019-06-19T21:04:14.330Z,19.60
2019-06-19T21:06:43.685Z,19.70
2019-06-19T21:09:09.558Z,19.60
2019-06-19T21:11:37.119Z,19.60
2019-06-19T21:14:07.440Z,19.70
2019-06-19T21:16:32.167Z,19.80
2019-06-19T21:19:00.421Z,19.60
2019-06-19T21:21:27.900Z,19.60
2019-06-19T21:23:55.627Z,19.60
2019-06-19T21:26:23.084Z,19.70
2019-06-19T21:28:50.554Z,19.70
2019-06-19T21:31:19.170Z,19.40
2019-06-19T21:33:46.659Z,19.40
2019-06-19T21:36:14.944Z,19.50
2019-06-19T21:38:43.181Z,19.70
2019-06-19T21:41:10.881Z,19.70
2019-06-19T21:43:38.418Z,19.70
2019-06-19T21:46:05.874Z,19.50
2019-06-19T21:48:33.352Z,19.50
2019-06-19T21:51:01.736Z,19.20
2019-06-19T21:53:29.302Z,19.20
2019-06-19T21:55:58.511Z,19.20
2019-06-19T21:58:25.124Z,19.30
2019-06-19T22:00:55.583Z,19.30
2019-06-19T22:03:24.190Z,19.30
2019-06-19T22:05:52.398Z,19.30
2019-06-19T22:08:19.895Z,19.30
2019-06-19T22:10:48.589Z,19.10
2019-06-19T22:13:16.066Z,19.10
2019-06-19T22:15:43.618Z,19.20
2019-06-19T22:18:11.080Z,19.10
2019-06-19T22:20:38.539Z,19.10
2019-06-19T22:23:07.334Z,19.20
2019-06-19T22:25:38.192Z,19.20
2019-06-19T22:28:05.725Z,19.30
2019-06-19T22:30:40.185Z,19.10
2019-06-19T22:33:08.445Z,19.20
2019-06-19T22:35:36.019Z,19.10
2019-06-19T22:38:04.610Z,19.00
2019-06-19T22:40:32.158Z,19.00
2019-06-19T22:42:59.727Z,19.10
2019-06-19T22:45:27.971Z,19.00
2019-06-19T22:47:55.463Z,19.00
2019-06-19T22:50:36.954Z,19.00
2019-06-19T22:53:04.449Z,19.00
2019-06-19T22:55:32.785Z,19.10
2019-06-19T22:58:00.363Z,19.10
2019-06-19T23:00:27.918Z,19.00
2019-06-19T23:03:01.211Z,19.10
2019-06-19T23:05:28.775Z,19.10
2019-06-19T23:07:57.183Z,19.10
2019-06-19T23:10:24.718Z,19.10
2019-06-19T23:12:52.282Z,19.20
2019-06-19T23:15:19.772Z,19.20
2019-06-19T23:17:47.341Z,19.10
2019-06-19T23:20:15.623Z,19.10
2019-06-19T23:22:43.857Z,19.00
2019-06-19T23:35:06.934Z,19.20
2019-06-19T23:37:34.490Z,19.10
2019-06-19T23:40:04.417Z,19.20
2019-06-19T23:49:58.419Z,19.10
